x

Corpus Christi, Tx - 60nm Sse Of Corpus Christi, Tx (42020) Wave Buoy

6:50am - Sun 22nd Jan 2017 All times are CST. -6 hours from GMT.

  • Sig Wave height 7.5ft
  • Swell Direction
  • Peak Period 6s
  • Average Period 5s
  • Wind
    38mph, 49mph gusts
  • Air Temp 69°f
  • Sea Pressure 1006.1mb
  • Corpus Christi, Tx - 60nm Sse Of Corpus Christi, Tx
  • Corpus Christi, Tx - 60nm Sse Of Corpus Christi, Tx

More Historic Weather Station data

Upgrade to MSW Pro to gain access to the past 30 days of data for over 8000 Wavebouys and Weather Stations around the globe.

Join Pro

Comparision Forecast

View Surf forecast
   
Sun 01/22 6:50am 7.5ft 6s 5s 38 49 mph 1006.1mb 69f
5:50am 7ft 6s 5s 36 47 mph 1005.3mb 69f
4:50am 7ft 6s 5s 34 43 mph 1004.6mb 69f
3:50am 6.5ft 6s 5s 29 38 mph 1003.8mb 70f
2:50am 6ft 5s 5s 31 36 mph 1002.9mb 70f
1:50am 5.5ft 5s 4s 29 36 mph 1001.9mb 71f
12:50am 4.5ft 8s 4s 34 43 mph 999.9mb 71f
Sat 01/21 11:50pm 4ft 8s 6s 18 20 mph 999.9mb 73f
10:50pm 3.5ft 8s 5s 9
mph
998.4mb 72f
9:50pm 3.5ft 8s 5s 4 7 mph 998mb 72f
8:50pm 3.5ft 6s 5s 11 13 mph 996.8mb 73f
7:50pm 3.5ft 6s 5s 16 18 mph 996.7mb 73f
6:50pm 3.5ft 6s 4s 16 18 mph 996.7mb 73f
5:50pm 3.5ft 6s 5s 18 20 mph 996.7mb 72f
4:50pm 3ft 7s 5s 20 22 mph 996.6mb 71f
3:50pm 3.5ft 6s 5s 16 18 mph 996.6mb 68f
2:50pm 3.5ft 6s 5s 11 13 mph 997.1mb 69f
1:50pm 3.5ft 6s 5s 11 13 mph 998.5mb 69f
12:50pm 3.5ft 6s 5s 13 16 mph 1000.3mb 67f
11:50am 3.5ft 7s 4s 16 20 mph 1002mb 67f
10:50am 3.5ft 7s 4s 20 25 mph 1002.9mb 68f
9:50am 3.5ft 6s 5s 20 25 mph 1002.9mb 68f
8:50am 3.5ft 7s 5s 16 18 mph 1002.7mb 67f
7:50am 3.5ft 7s 4s 13 16 mph 1002.6mb 68f
6:50am 3.5ft 7s 4s 16 20 mph 1002.7mb 68f
5:50am 3.5ft 7s 4s 16 20 mph 1002.5mb 69f
4:50am 3ft 7s 4s 18 22 mph 1001.9mb 69f
3:50am 3ft 7s 5s 18 22 mph 1003mb 67f
2:50am 3ft 7s 5s 13 16 mph 1003.7mb 66f
1:50am 2.5ft 6s 5s 13 16 mph 1004.4mb 66f
12:50am 3ft 7s 5s 11 13 mph 1004.1mb 67f
Fri 01/20 11:50pm 3ft 7s 5s 9
mph
1004.6mb 67f
10:50pm 3ft 8s 5s 9 11 mph 1005.3mb 67f
9:50pm 3.5ft 6s 5s 11 13 mph 1005mb 71f
8:50pm 3.5ft 6s 5s 11 13 mph 1004.4mb 71f
7:50pm 3.5ft 6s 5s 11 13 mph 1004.2mb 71f
6:50pm 3ft 7s 5s 11
mph
1004.1mb 71f
5:50pm 3ft 8s 5s 9 11 mph 1004.1mb 72f
4:50pm 3ft 6s 5s 9 11 mph 1003.8mb 72f
3:50pm 3ft 7s 5s 11 13 mph 1003.8mb 72f
2:50pm 3ft 6s 5s 9 11 mph 1004.2mb 72f
1:50pm 2.5ft 6s 5s 9 11 mph 1004.8mb 72f
12:50pm 3ft 7s 5s 9 11 mph 1005.8mb 72f
11:50am 2.5ft 6s 5s 4 7 mph 1007.6mb 72f
10:50am 3ft 7s 5s 9 11 mph 1007.9mb 72f
9:50am 2.5ft 6s 6s 9
mph
1008.1mb 71f
8:50am 3ft 7s 5s 7 9 mph 1007.8mb 71f
7:50am 3ft 6s 5s 4 7 mph 1007.6mb 71f
6:50am 3ft 6s 5s 4 7 mph 1006.9mb 70f
5:50am 2.5ft 7s 5s 4
mph
1006.2mb 70f
4:50am 3ft 7s 5s 2 4 mph 1006.2mb 69f
3:50am 2.5ft 7s 5s 2
mph
1006.5mb 68f
2:50am 2.5ft 7s 5s 9
mph
1006.9mb 68f
1:50am 2.5ft 7s 5s 7 9 mph 1007mb 68f
12:50am 2.5ft 7s 5s 13 18 mph 1007mb 69f
Thu 01/19 11:50pm 2.5ft 8s 5s 11 13 mph 1007.3mb 70f
10:50pm 2.5ft 7s 6s 16 20 mph 1007.6mb 69f
9:50pm 2.5ft 8s 6s 11
mph
1007.8mb 68f
8:50pm 2.5ft 7s 6s 9 13 mph 1008.5mb 67f
7:50pm 2.5ft 7s 6s 4 7 mph 1008.5mb 67f
6:50pm 2.5ft 8s 6s 7
mph
1008.5mb 67f
5:50pm 2.5ft 8s 6s 7
mph
1008.2mb 67f
4:50pm 2.5ft 7s 6s 4
mph
1008.1mb 66f
3:50pm 2.5ft 7s 6s 2
mph
1008.2mb 65f
2:50pm 2.5ft 8s 6s 4
mph
1008.5mb 65f
1:50pm 3ft 7s 5s 7 9 mph 1009.4mb 64f
12:50pm 3ft 8s 5s 9 11 mph 1010.6mb 64f
11:50am 3.5ft 8s 5s 7 9 mph 1012.7mb 64f
10:50am 3.5ft 7s 5s 9 11 mph 1013.5mb 64f
9:50am 3.5ft 7s 5s 16 18 mph 1013.3mb 64f
8:50am 3.5ft 8s 6s 18 20 mph 1012mb 64f
7:50am 3ft 7s 6s 13 16 mph 1011.6mb 66f
6:50am 3ft 8s 6s 7 9 mph 1011.3mb 65f
5:50am 3.5ft 7s 6s 7 11 mph 1012.1mb 66f
4:50am 3ft 7s 6s 11 16 mph 1011.9mb 66f
3:50am 3.5ft 8s 6s 4 9 mph 1012.5mb 66f
2:50am 3ft 8s 6s 7 9 mph 1012.4mb 67f
1:50am 3.5ft 8s 6s 9 11 mph 1012.9mb 66f
12:50am 3ft 7s 5s 7 9 mph 1014.2mb 65f
Wed 01/18 11:50pm 3.5ft 8s 5s 13 16 mph 1015.1mb 65f
10:50pm 3.5ft 8s 6s 13 16 mph 1015.1mb 65f
9:50pm 3ft 7s 5s 9 11 mph 1015mb 65f
8:50pm 3ft 8s 5s 11 13 mph 1015.2mb 65f
7:50pm 3.5ft 8s 5s 11 16 mph 1014.7mb 64f
6:50pm 3.5ft 7s 5s 11 13 mph 1015.1mb 64f
5:50pm 3.5ft 8s 5s 9 11 mph 1014.9mb 63f
4:50pm 4ft 8s 5s 11 13 mph 1014.3mb 63f
3:50pm 4.5ft 8s 5s 16 18 mph 1014.3mb 62f
2:50pm 4.5ft 8s 5s 18 20 mph 1015mb 62f